Custom Search

Airport METAR Reports

 

YMAV - Avalon Airport, Australia
Distance from station: 0 0km
Updated: 21/01/2019 16:30
Clear
Clear
 Wind from S
Wind: S 26 km/h
Temperature: 26°C
Dew Point: 17°C
Humidity: 58%
Barometer: 1013 hPa
Clouds: Clear
Visibility: 10 km
2019/01/21 05:30 YMAV 210530Z AUTO 18014KT 9999 // NCD 26/17 Q1013 RF00.0/000.0
YMML - Melbourne Intl A, Australia
Distance from station: NE 50km
Updated: 21/01/2019 16:30
Clear
Clear
 Wind from S
Wind: S 19 km/h
Temperature: 28°C
Heat Index: 28°C
Dew Point: 16°C
Humidity: 48%
Barometer: 1013 hPa
Summary: Clear
Visibility: greater than 10 km
2019/01/21 05:30 YMML 210530Z 17010KT CAVOK 28/16 Q1013 NOSIG
YMEN - Melbourne/Essend, Australia
Distance from station: NE 51km
Updated: 21/01/2019 16:00
Clear
Clear
 Wind from S
Wind: S 22 km/h
Temperature: 27°C
Heat Index: 28°C
Dew Point: 17°C
Humidity: 54%
Barometer: 1013 hPa
Clouds: Clear
Visibility: 10 km
2019/01/21 05:00 YMEN 210500Z AUTO 18012KT 9999 // NCD 27/17 Q1013
 
YWGT - Wangaratta Arp, Australia
Distance from station: NE 241km
Updated: 21/01/2019 16:00
Clear
Clear
 Wind from ENE
Wind: ENE 11 km/h
Temperature: 37°C
Dew Point: 4°C
Humidity: 13%
Barometer: 1011 hPa
Clouds: Clear
Visibility: 10 km
2019/01/21 05:00 YWGT 210500Z AUTO 06006KT 9999 // NCD 37/04 Q1011
YMAY - Albury Airport, Australia
Distance from station: NE 308km
Updated: 21/01/2019 16:00
Clear
Clear
 Wind from SW
Wind: SW 13 km/h
Temperature: 39°C
Dew Point: 10°C
Humidity: 17%
Barometer: 1011 hPa
Clouds: Clear
Visibility: 10 km
2019/01/21 05:00 YMAY 210500Z AUTO 23007KT 9999 // NCD 39/10 Q1011
YMTG - Mount Gambier, Australia
Distance from station: W 326km
Updated: 21/01/2019 16:00
Clear
Clear
 Wind from S
Wind: S 26 km/h
Temperature: 28°C
Heat Index: 28°C
Dew Point: 17°C
Humidity: 51%
Barometer: 1014 hPa
Clouds: Clear
Visibility: 10 km
2019/01/21 05:00 YMTG 210500Z AUTO 19014KT 9999 // NCD 28/17 Q1014
 
YNAR - Narrandera, Australia
Distance from station: NNE 413km
Updated: 21/01/2019 16:00

 Wind from SSW
Wind: SSW 9 km/h
Temperature: 39°C
Dew Point: 12°C
Humidity: 20%
Barometer: 1011 hPa
2019/01/21 05:00 YNAR 210500Z AUTO 21005KT //// // ////// 39/12 Q1011
YSWG - Wagga Wagga(Cv/M, Australia
Distance from station: NE 418km
Updated: 21/01/2019 16:00
Clear
Clear
 Wind from WSW
Wind: WSW 20 km/h
Temperature: 38°C
Dew Point: 11°C
Humidity: 20%
Barometer: 1011 hPa
Summary: Clear
Visibility: greater than 10 km
2019/01/21 05:00 YSWG 210500Z 25011KT 180V280 CAVOK 38/11 Q1011
YCOM - Cooma Snowy Mtns, Australia
Distance from station: ENE 441km
Updated: 21/01/2019 16:00
Partly cloudy
Partly cloudy
 Wind from W
Wind: W 22 km/h
Temperature: 32°C
Dew Point: 9°C
Humidity: 24%
Barometer: 1017 hPa
Clouds: Partly cloudy
Visibility: 10 km
Cloud details: Partly cloudy 2926 m
2019/01/21 05:00 YCOM 210500Z AUTO 27012KT 9999 // SCT096 32/09 Q1017
 
YGTH - Griffith Arpt, Australia
Distance from station: NNE 444km
Updated: 21/01/2019 16:00
Clear
Clear
 Wind from NW
Wind: NW 17 km/h
Temperature: 39°C
Dew Point: 11°C
Humidity: 18%
Barometer: 1010 hPa
Clouds: Clear
Visibility: 10 km
2019/01/21 05:00 YGTH 210500Z AUTO 31009KT 260V340 9999 // NCD 39/11 Q1010
YMLT - Launceston Airpo, Australia
Distance from station: SSE 451km
Updated: 21/01/2019 16:30
Clear
Clear
 Wind from NNW
Wind: NNW 39 km/h
Temperature: 30°C
Dew Point: 8°C
Humidity: 25%
Barometer: 1011 hPa
Clouds: Clear
Visibility: 10 km
2019/01/21 05:30 YMLT 210530Z AUTO 34021KT 9999 // NCD 30/08 Q1011 RF00.0/000.0
YMIA - Mildura Arpt, Australia
Distance from station: NNW 474km
Updated: 21/01/2019 16:00
Clear
Clear
 Wind from E
Wind: E 7 km/h
Temperature: 39°C
Dew Point: 4°C
Humidity: 11%
Barometer: 1010 hPa
Clouds: Clear
Visibility: 10 km
2019/01/21 05:00 YMIA 210500Z AUTO 08004KT 9999 // NCD 39/04 Q1010
 
YMER - Merimbula Arpt, Australia
Distance from station: ENE 494km
Updated: 21/01/2019 16:00
Clear
Clear
 Wind from NE
Wind: NE 22 km/h
Temperature: 26°C
Dew Point: 20°C
Humidity: 70%
Barometer: 1014 hPa
Clouds: Clear
Visibility: 10 km
2019/01/21 05:00 YMER 210500Z AUTO 04012KT 9999 // NCD 26/20 Q1014
YSCB - Canberra (civ/Mi, Australia
Distance from station: NE 518km
Updated: 21/01/2019 16:30
Clear
Clear
 Wind from NNE
Wind: NNE 26 km/h
Temperature: 32°C
Dew Point: 16°C
Humidity: 38%
Barometer: 1015 hPa
Clouds: Clear
Visibility: 10 km
2019/01/21 05:30 YSCB 210530Z AUTO 03014KT 9999 // NCD 32/16 Q1015 RMK RF00.0/000.0 NOSIG
YMHB - Hobart/Tasmania, Australia
Distance from station: SSE 590km
Updated: 21/01/2019 16:30
Few Clouds
Few Clouds
 Wind from S
Wind: S 30 km/h
Temperature: 23°C
Dew Point: 15°C
Humidity: 61%
Barometer: 1012 hPa
Clouds: Few Clouds
Visibility: 10 km
Cloud details: Few Clouds 671 m
2019/01/21 05:30 YMHB 210530Z 17016KT 9999 FEW022 23/15 Q1012